CZ-0078 weather

Polepy
Ústí nad Labem Region, Czechia

Public forecast

Using degrees Celsius for public forecast. Weather courtesy of forecast.io.

Closest aviation weather report (METAR) to Polepy

Report is more than 6 hours old.

Closest report is Vodochody Airport, 18.9 nm (35.0 km) SSE. Retrieved 2019/10/16 12:00 UTC (17 hours ago):

LKVO 161200Z 25019KT 9999 FEW037 SCT050 17/07 Q1014

Closest aviation forecast (TAF) to Polepy

Closest forecast is Václav Havel Airport Prague, 25.3 nm (46.8 km) S. Retrieved 2019-10-17 00:06 UTC (5 hours ago):

TAF LKPR 162300Z 1700/1806 20005KT CAVOK BECMG 1800/1802 3000 BR SCT007 TEMPO 1802/1806 0900 FG BKN004 PROB30 TEMPO 1803/1806 0300 FG OVC003